Time;durP1;ratioP1;P1;durP2;ratioP2;P2;SDS_P1;SDS_P2;PMS_P1;PMS_P2;Temp;Humidity;BMP_temperature;BMP_pressure;BME280_temperature;BME280_humidity;BME280_pressure;Samples;Min_cycle;Max_cycle;Signal;HPM_P1;HPM_P2
2021/12/04 00:02:05;;;;;;;;;;;103.20;2227.20;;;;;;5074305;28;19905;-81
2021/12/04 00:04:34;;;;;;;;;;;103.10;2227.20;;;;;;5071529;28;19905;-81
2021/12/04 00:07:00;;;;;;;;;;;103.10;2227.20;;;;;;5073741;28;19908;-80
2021/12/04 00:09:25;;;;;;;;;;;103.10;2227.20;;;;;;5072905;28;19919;-79
2021/12/04 00:11:54;;;;;;;;;;;103.00;2227.20;;;;;;5071522;28;19905;-82
2021/12/04 00:14:20;;;;;;;;;;;103.10;2227.20;;;;;;5074006;28;19905;-80
2021/12/04 00:16:45;;;;;;;;;;;103.10;2227.20;;;;;;5073094;28;19916;-82
2021/12/04 00:19:11;;;;;;;;;;;103.00;2227.20;;;;;;5072574;28;19918;-80
2021/12/04 00:21:37;;;;;;;;;;;103.10;2227.20;;;;;;5074216;28;19991;-81
2021/12/04 00:24:02;;;;;;;;;;;103.00;2227.20;;;;;;5074190;28;20288;-75
2021/12/04 00:26:28;;;;;;;;;;;103.10;2227.20;;;;;;5073727;28;19950;-75
2021/12/04 00:28:54;;;;;;;;;;;103.10;2227.20;;;;;;5074446;28;19966;-80
2021/12/04 00:31:19;;;;;;;;;;;103.00;2227.20;;;;;;5073694;28;19904;-79
2021/12/04 00:33:46;;;;;;;;;;;103.00;2227.20;;;;;;5072966;28;19904;-81
2021/12/04 00:49:54;;;;;;;;;;;103.10;2227.20;;;;;;5031903;28;19955;-81
2021/12/04 00:52:20;;;;;;;;;;;103.10;2227.20;;;;;;5031670;28;20368;-81
2021/12/04 00:54:46;;;;;;;;;;;103.00;2227.20;;;;;;5031448;28;19909;-81
2021/12/04 00:57:12;;;;;;;;;;;103.00;2227.20;;;;;;5031822;28;19913;-80
2021/12/04 00:59:38;;;;;;;;;;;103.00;2227.20;;;;;;5031158;28;19912;-81
2021/12/04 01:02:04;;;;;;;;;;;102.90;2227.20;;;;;;5031668;28;20269;-80
2021/12/04 01:04:29;;;;;;;;;;;102.50;2227.20;;;;;;5031467;28;20032;-77
2021/12/04 01:06:55;;;;;;;;;;;102.70;2227.20;;;;;;5031927;28;19904;-79
2021/12/04 01:09:22;;;;;;;;;;;102.70;2227.20;;;;;;5031208;28;20028;-81
2021/12/04 01:11:49;;;;;;;;;;;77.60;2227.20;;;;;;5031393;28;19905;-82
2021/12/04 01:14:16;;;;;;;;;;;102.50;2227.20;;;;;;5028743;28;19912;-79
2021/12/04 01:16:41;;;;;;;;;;;102.60;2227.20;;;;;;5063408;28;19951;-78
2021/12/04 01:19:07;;;;;;;;;;;102.50;2227.20;;;;;;5072084;28;19916;-81
2021/12/04 01:21:33;;;;;;;;;;;102.70;2227.20;;;;;;5073024;28;19912;-81
2021/12/04 01:23:59;;;;;;;;;;;102.50;2227.20;;;;;;5073222;28;19911;-81
2021/12/04 01:26:25;;;;;;;;;;;102.60;2227.20;;;;;;5070039;28;19994;-80
2021/12/04 01:28:51;;;;;;;;;;;102.70;2227.20;;;;;;5073134;28;19908;-79
2021/12/04 01:31:16;;;;;;;;;;;102.70;2227.20;;;;;;5072861;28;20387;-80
2021/12/04 01:33:42;;;;;;;;;;;102.80;2227.20;;;;;;5073007;28;19905;-79
2021/12/04 01:36:09;;;;;;;;;;;102.80;2227.20;;;;;;5071663;28;19954;-80
2021/12/04 01:38:35;;;;;;;;;;;102.90;2227.20;;;;;;5070306;28;19952;-80
2021/12/04 01:41:01;;;;;;;;;;;102.50;2227.20;;;;;;5072892;28;19927;-79
2021/12/04 01:43:26;;;;;;;;;;;102.50;2227.20;;;;;;5072933;28;19987;-79
2021/12/04 01:45:55;;;;;;;;;;;102.60;2227.20;;;;;;5072731;28;19908;-80
2021/12/04 01:48:21;;;;;;;;;;;102.70;2227.20;;;;;;5072294;28;19912;-80
2021/12/04 01:50:47;;;;;;;;;;;102.80;2227.20;;;;;;5072970;28;19934;-79
2021/12/04 01:53:12;;;;;;;;;;;102.80;2227.20;;;;;;5072723;28;19905;-81
2021/12/04 01:55:38;;;;;;;;;;;102.70;2227.20;;;;;;5072723;28;19962;-81
2021/12/04 01:58:04;;;;;;;;;;;102.70;2227.20;;;;;;5072673;28;19963;-80
2021/12/04 02:00:37;;;;;;;;;;;102.70;2227.20;;;;;;5072086;28;19912;-79
2021/12/04 02:03:04;;;;;;;;;;;102.80;2227.20;;;;;;5071077;28;19986;-80
2021/12/04 02:05:30;;;;;;;;;;;102.80;2227.20;;;;;;5071812;28;19983;-81
2021/12/04 02:07:56;;;;;;;;;;;102.70;2227.20;;;;;;5069942;28;20048;-81
2021/12/04 02:10:21;;;;;;;;;;;102.70;2227.20;;;;;;5072527;28;19952;-81
2021/12/04 02:12:48;;;;;;;;;;;102.70;2227.20;;;;;;5072927;28;19904;-81
2021/12/04 02:15:15;;;;;;;;;;;102.70;2227.20;;;;;;5072695;28;19926;-81
2021/12/04 02:17:40;;;;;;;;;;;102.60;2227.20;;;;;;5072352;28;19912;-80
2021/12/04 02:20:10;;;;;;;;;;;102.60;2227.20;;;;;;5072438;28;19958;-80
2021/12/04 02:22:35;;;;;;;;;;;102.50;2227.20;;;;;;5072615;28;19926;-81
2021/12/04 02:25:01;;;;;;;;;;;77.60;2227.20;;;;;;5072577;28;19904;-80
2021/12/04 02:27:27;;;;;;;;;;;77.50;2227.20;;;;;;5071449;28;20380;-80
2021/12/04 02:29:52;;;;;;;;;;;77.50;2227.20;;;;;;5074315;28;19919;-78
2021/12/04 02:32:18;;;;;;;;;;;77.60;2227.20;;;;;;5076091;28;19909;-80
2021/12/04 02:34:44;;;;;;;;;;;77.40;2227.20;;;;;;5076088;28;19904;-81
2021/12/04 02:37:10;;;;;;;;;;;77.40;2227.20;;;;;;5075977;28;19912;-81
2021/12/04 02:39:38;;;;;;;;;;;77.50;2227.20;;;;;;5075854;28;19957;-81
2021/12/04 02:42:06;;;;;;;;;;;77.60;2227.20;;;;;;5075922;28;19912;-81
2021/12/04 02:44:37;;;;;;;;;;;77.60;2227.20;;;;;;5076146;28;19904;-79
2021/12/04 02:47:02;;;;;;;;;;;77.70;2227.20;;;;;;5075945;28;19915;-81
2021/12/04 02:49:28;;;;;;;;;;;77.70;2227.20;;;;;;5074810;28;19916;-80
2021/12/04 02:51:53;;;;;;;;;;;77.60;2227.20;;;;;;5075657;28;19965;-80
2021/12/04 02:54:19;;;;;;;;;;;77.70;2227.20;;;;;;5075627;28;20411;-81
2021/12/04 02:56:45;;;;;;;;;;;77.70;2227.20;;;;;;5075254;28;19908;-80
2021/12/04 02:59:11;;;;;;;;;;;77.70;2227.20;;;;;;5075604;28;20264;-80
2021/12/04 03:01:38;;;;;;;;;;;77.70;2227.20;;;;;;5072959;28;19977;-79
2021/12/04 03:04:10;;;;;;;;;;;77.60;2227.20;;;;;;5075453;28;19908;-80
2021/12/04 03:06:37;;;;;;;;;;;77.50;2227.20;;;;;;5075595;28;19915;-75
2021/12/04 03:09:03;;;;;;;;;;;77.50;2227.20;;;;;;5074485;28;19951;-81
2021/12/04 03:11:29;;;;;;;;;;;77.50;2227.20;;;;;;5075360;28;20348;-79
2021/12/04 03:13:55;;;;;;;;;;;77.50;2227.20;;;;;;5075118;28;19904;-80
2021/12/04 03:16:20;;;;;;;;;;;77.50;2227.20;;;;;;5074253;28;20288;-80
2021/12/04 03:18:46;;;;;;;;;;;77.50;2227.20;;;;;;5074990;28;19920;-80
2021/12/04 03:21:11;;;;;;;;;;;77.40;2227.20;;;;;;5075105;28;19908;-80
2021/12/04 03:23:51;;;;;;;;;;;77.40;2227.20;;;;;;5075247;28;19905;-80
2021/12/04 03:26:16;;;;;;;;;;;77.40;2227.20;;;;;;5074820;28;19908;-82
2021/12/04 03:28:42;;;;;;;;;;;77.40;2227.20;;;;;;5075353;28;19904;-81
2021/12/04 03:42:04;;;;;;;;;;;77.50;2227.20;;;;;;5071930;28;19912;-75
2021/12/04 03:44:31;;;;;;;;;;;77.40;2227.20;;;;;;5075159;28;19905;-80
2021/12/04 03:46:57;;;;;;;;;;;77.50;2227.20;;;;;;5073634;28;20124;-80
2021/12/04 03:49:23;;;;;;;;;;;77.60;2227.20;;;;;;5074684;28;20389;-81
2021/12/04 03:51:48;;;;;;;;;;;77.40;2227.20;;;;;;5073761;28;19991;-80
2021/12/04 03:54:14;;;;;;;;;;;77.20;2227.20;;;;;;5074659;28;20308;-78
2021/12/04 03:56:40;;;;;;;;;;;77.20;2227.20;;;;;;5074500;28;19999;-80
2021/12/04 03:59:05;;;;;;;;;;;77.20;2227.20;;;;;;5074724;28;20003;-79
2021/12/04 04:01:31;;;;;;;;;;;77.20;2227.20;;;;;;5073373;28;19904;-79
2021/12/04 04:03:57;;;;;;;;;;;77.30;2227.20;;;;;;5074051;28;19904;-79
2021/12/04 04:06:22;;;;;;;;;;;77.40;2227.20;;;;;;5074418;28;19963;-81
2021/12/04 04:08:48;;;;;;;;;;;77.40;2227.20;;;;;;5074091;28;19905;-79
2021/12/04 04:11:13;;;;;;;;;;;77.10;2227.20;;;;;;5074050;28;19905;-80
2021/12/04 04:13:43;;;;;;;;;;;76.90;2227.20;;;;;;5074013;28;19905;-80
2021/12/04 04:16:08;;;;;;;;;;;76.90;2227.20;;;;;;5074253;28;20321;-80
2021/12/04 04:18:34;;;;;;;;;;;77.10;2227.20;;;;;;5073690;28;19995;-80
2021/12/04 04:21:00;;;;;;;;;;;77.10;2227.20;;;;;;5073942;28;19961;-75
2021/12/04 04:23:26;;;;;;;;;;;77.10;2227.20;;;;;;5074107;28;19995;-79
2021/12/04 04:25:51;;;;;;;;;;;77.00;2227.20;;;;;;5073597;28;19995;-79
2021/12/04 04:28:17;;;;;;;;;;;77.10;2227.20;;;;;;5072841;28;19985;-79
2021/12/04 04:30:43;;;;;;;;;;;77.00;2227.20;;;;;;5073730;28;19999;-80
2021/12/04 04:33:11;;;;;;;;;;;77.00;2227.20;;;;;;5073922;28;19939;-78
2021/12/04 04:35:37;;;;;;;;;;;77.00;2227.20;;;;;;5073452;28;19999;-79
2021/12/04 04:39:13;;;;;;;;;;;77.20;2227.20;;;;;;5073789;28;20003;-80
2021/12/04 04:57:38;;;;;;;;;;;77.20;2227.20;;;;;;5070454;28;19974;-80
2021/12/04 05:00:20;;;;;;;;;;;77.10;2227.20;;;;;;5070916;28;19913;-80
2021/12/04 05:13:32;;;;;;;;;;;77.00;2227.20;;;;;;5071641;28;19997;-75
2021/12/04 05:15:59;;;;;;;;;;;77.00;2227.20;;;;;;5072194;28;19909;-78
2021/12/04 05:20:54;;;;;;;;;;;76.80;2227.20;;;;;;5073026;28;19931;-78
2021/12/04 05:23:20;;;;;;;;;;;76.90;2227.20;;;;;;5073193;28;19912;-80
2021/12/04 05:25:46;;;;;;;;;;;77.00;2227.20;;;;;;5072995;28;19905;-78
2021/12/04 05:28:12;;;;;;;;;;;76.90;2227.20;;;;;;5073284;28;20300;-80
2021/12/04 05:30:38;;;;;;;;;;;52.00;2227.20;;;;;;5073036;28;20524;-79
2021/12/04 05:33:04;;;;;;;;;;;52.10;2227.20;;;;;;5073482;28;20349;-76
2021/12/04 05:35:29;;;;;;;;;;;76.90;2227.20;;;;;;5072938;28;19910;-80
2021/12/04 05:37:55;;;;;;;;;;;52.00;2227.20;;;;;;5072113;28;19912;-80
2021/12/04 05:40:21;;;;;;;;;;;51.70;2227.20;;;;;;5071881;28;19912;-79
2021/12/04 05:42:47;;;;;;;;;;;51.40;2227.20;;;;;;5073458;28;19915;-79
2021/12/04 05:45:24;;;;;;;;;;;51.60;2227.20;;;;;;5072943;28;19904;-80
2021/12/04 05:48:07;;;;;;;;;;;51.70;2227.20;;;;;;5070613;28;19904;-79
2021/12/04 05:53:16;;;;;;;;;;;51.40;2227.20;;;;;;5072798;28;19912;-80
2021/12/04 05:55:52;;;;;;;;;;;51.30;2227.20;;;;;;5072462;28;20420;-78
2021/12/04 05:58:44;;;;;;;;;;;51.30;2227.20;;;;;;5072988;28;19913;-79
2021/12/04 06:01:09;;;;;;;;;;;51.20;2227.20;;;;;;5065652;28;19904;-81
2021/12/04 06:03:35;;;;;;;;;;;51.20;2227.20;;;;;;5071527;28;19911;-80
2021/12/04 06:06:02;;;;;;;;;;;51.50;2227.20;;;;;;5076619;28;19905;-79
2021/12/04 06:08:28;;;;;;;;;;;51.70;2227.20;;;;;;5076599;28;19904;-80
2021/12/04 06:10:54;;;;;;;;;;;51.70;2227.20;;;;;;5076645;28;19911;-81
2021/12/04 06:13:20;;;;;;;;;;;51.90;2227.20;;;;;;5076325;28;19904;-80
2021/12/04 06:15:46;;;;;;;;;;;51.90;2227.20;;;;;;5076487;28;19996;-80
2021/12/04 06:18:13;;;;;;;;;;;51.80;2227.20;;;;;;5074820;28;19920;-78
2021/12/04 06:23:23;;;;;;;;;;;52.00;2227.20;;;;;;5075978;28;19965;-78
2021/12/04 06:25:48;;;;;;;;;;;51.80;2227.20;;;;;;5075817;28;19905;-78
2021/12/04 06:28:14;;;;;;;;;;;51.70;2227.20;;;;;;5075020;28;19912;-77
2021/12/04 06:30:42;;;;;;;;;;;51.50;2227.20;;;;;;5075974;28;19911;-79
2021/12/04 06:33:08;;;;;;;;;;;51.60;2227.20;;;;;;5076099;28;19909;-77
2021/12/04 06:35:36;;;;;;;;;;;51.70;2227.20;;;;;;5075696;28;21064;-78
2021/12/04 06:38:02;;;;;;;;;;;51.90;2227.20;;;;;;5075656;28;19965;-77
2021/12/04 06:40:28;;;;;;;;;;;51.80;2227.20;;;;;;5075640;28;19991;-77
2021/12/04 06:42:55;;;;;;;;;;;52.10;2227.20;;;;;;5075318;28;20428;-79
2021/12/04 06:45:20;;;;;;;;;;;52.00;2227.20;;;;;;5075884;28;19912;-75
2021/12/04 06:48:07;;;;;;;;;;;76.80;2227.20;;;;;;5075288;28;19908;-79
2021/12/04 06:53:11;;;;;;;;;;;77.00;2227.20;;;;;;5075041;28;19915;-77
2021/12/04 06:55:40;;;;;;;;;;;77.00;2227.20;;;;;;5072323;28;19915;-75
2021/12/04 06:58:06;;;;;;;;;;;77.00;2227.20;;;;;;5073750;28;19916;-75
2021/12/04 07:00:32;;;;;;;;;;;77.10;2227.20;;;;;;5074784;28;19911;-77
2021/12/04 07:02:58;;;;;;;;;;;77.20;2227.20;;;;;;5075558;28;19904;-76
2021/12/04 07:05:24;;;;;;;;;;;77.20;2227.20;;;;;;5074989;28;19912;-76
2021/12/04 07:07:49;;;;;;;;;;;77.20;2227.20;;;;;;5074861;28;19963;-77
2021/12/04 07:10:15;;;;;;;;;;;77.20;2227.20;;;;;;5074687;28;19957;-77
2021/12/04 07:12:41;;;;;;;;;;;77.20;2227.20;;;;;;5074706;28;19905;-75
2021/12/04 07:15:08;;;;;;;;;;;77.30;2227.20;;;;;;5074349;28;19914;-75
2021/12/04 07:17:35;;;;;;;;;;;77.30;2227.20;;;;;;5073867;28;19916;-73
2021/12/04 07:20:03;;;;;;;;;;;77.40;2227.20;;;;;;5074925;28;19960;-76
2021/12/04 07:22:29;;;;;;;;;;;77.40;2227.20;;;;;;5074134;28;19935;-75
2021/12/04 07:24:55;;;;;;;;;;;77.30;2227.20;;;;;;5074919;28;19908;-76
2021/12/04 07:27:20;;;;;;;;;;;77.10;2227.20;;;;;;5074591;28;20315;-76
2021/12/04 07:29:46;;;;;;;;;;;77.00;2227.20;;;;;;5073661;28;20076;-75
2021/12/04 07:32:11;;;;;;;;;;;76.90;2227.20;;;;;;5074598;28;20408;-75
2021/12/04 07:34:37;;;;;;;;;;;77.00;2227.20;;;;;;5074589;28;19935;-75
2021/12/04 07:37:03;;;;;;;;;;;77.00;2227.20;;;;;;5074347;28;19958;-75
2021/12/04 07:39:29;;;;;;;;;;;77.20;2227.20;;;;;;5074316;28;19909;-75
2021/12/04 07:41:54;;;;;;;;;;;77.10;2227.20;;;;;;5074494;28;19904;-75
2021/12/04 07:44:20;;;;;;;;;;;77.10;2227.20;;;;;;5073100;28;19904;-75
2021/12/04 07:46:46;;;;;;;;;;;77.10;2227.20;;;;;;5072989;28;20282;-76
2021/12/04 07:49:11;;;;;;;;;;;77.00;2227.20;;;;;;5073905;28;19917;-76
2021/12/04 07:51:37;;;;;;;;;;;77.00;2227.20;;;;;;5074377;28;20353;-75
2021/12/04 07:54:03;;;;;;;;;;;76.90;2227.20;;;;;;5074165;28;19904;-76
2021/12/04 07:56:29;;;;;;;;;;;76.90;2227.20;;;;;;5074406;28;19908;-75
2021/12/04 07:58:55;;;;;;;;;;;76.90;2227.20;;;;;;5072596;28;19912;-76
2021/12/04 08:01:21;;;;;;;;;;;76.90;2227.20;;;;;;5074173;28;19908;-76
2021/12/04 08:03:46;;;;;;;;;;;76.90;2227.20;;;;;;5073934;28;19912;-76
2021/12/04 08:06:12;;;;;;;;;;;76.90;2227.20;;;;;;5073117;28;19904;-76
2021/12/04 08:08:37;;;;;;;;;;;76.90;2227.20;;;;;;5073900;28;19999;-76
2021/12/04 08:11:04;;;;;;;;;;;77.10;2227.20;;;;;;5073832;28;20261;-76
2021/12/04 08:13:30;;;;;;;;;;;77.20;2227.20;;;;;;5074040;28;19912;-77
2021/12/04 08:15:56;;;;;;;;;;;77.20;2227.20;;;;;;5073694;28;19912;-77
2021/12/04 08:18:21;;;;;;;;;;;77.20;2227.20;;;;;;5073747;28;19916;-75
2021/12/04 08:20:48;;;;;;;;;;;77.30;2227.20;;;;;;5073758;28;19908;-75
2021/12/04 08:23:13;;;;;;;;;;;77.30;2227.20;;;;;;5073967;28;19905;-76
2021/12/04 08:25:39;;;;;;;;;;;77.30;2227.20;;;;;;5074108;28;19904;-77
2021/12/04 08:28:05;;;;;;;;;;;77.40;2227.20;;;;;;5072529;28;19904;-78
2021/12/04 08:30:33;;;;;;;;;;;77.40;2227.20;;;;;;5073947;28;20268;-78
2021/12/04 08:32:59;;;;;;;;;;;77.60;2227.20;;;;;;5072502;28;19911;-74
2021/12/04 08:35:26;;;;;;;;;;;77.40;2227.20;;;;;;5074038;28;19904;-77
2021/12/04 08:37:53;;;;;;;;;;;77.60;2227.20;;;;;;5073152;28;19913;-78
2021/12/04 08:40:19;;;;;;;;;;;77.60;2227.20;;;;;;5073779;28;19943;-79
2021/12/04 08:42:46;;;;;;;;;;;77.50;2227.20;;;;;;5073285;28;19904;-78
2021/12/04 08:45:12;;;;;;;;;;;77.70;2227.20;;;;;;5073717;28;19958;-78
2021/12/04 08:47:38;;;;;;;;;;;77.70;2227.20;;;;;;5073268;28;19919;-79
2021/12/04 08:50:09;;;;;;;;;;;102.40;2227.20;;;;;;5073404;28;19924;-77
2021/12/04 08:52:35;;;;;;;;;;;102.40;2227.20;;;;;;5073360;28;19905;-74
2021/12/04 08:55:00;;;;;;;;;;;102.50;2227.20;;;;;;5072102;28;20364;-77
2021/12/04 08:57:26;;;;;;;;;;;102.50;2227.20;;;;;;5073263;28;19912;-77
2021/12/04 08:59:52;;;;;;;;;;;102.70;2227.20;;;;;;5073405;28;19984;-78
2021/12/04 09:02:18;;;;;;;;;;;102.90;2227.20;;;;;;5071278;28;19908;-77
2021/12/04 09:04:46;;;;;;;;;;;103.00;2227.20;;;;;;5072455;28;20285;-77
2021/12/04 09:07:12;;;;;;;;;;;103.20;2227.20;;;;;;5073364;28;19904;-77
2021/12/04 09:09:38;;;;;;;;;;;103.20;2227.20;;;;;;5073060;28;19904;-77
2021/12/04 09:12:06;;;;;;;;;;;103.10;2227.20;;;;;;5073091;28;20363;-77
2021/12/04 09:14:32;;;;;;;;;;;103.30;2227.20;;;;;;5071946;28;20273;-76
2021/12/04 09:16:59;;;;;;;;;;;128.00;2252.80;;;;;;5073107;28;19904;-76
2021/12/04 09:19:25;;;;;;;;;;;103.30;2227.20;;;;;;5072952;28;19919;-75
2021/12/04 09:21:52;;;;;;;;;;;128.00;2252.80;;;;;;5072338;28;19920;-77
2021/12/04 09:24:24;;;;;;;;;;;128.30;2252.80;;;;;;5072553;28;19908;-76
2021/12/04 09:26:58;;;;;;;;;;;128.50;2252.80;;;;;;5071062;28;19966;-78
2021/12/04 09:59:26;;;;;;;;;;;153.90;2252.80;;;;;;5077063;28;19923;-78
2021/12/04 10:34:28;;;;;;;;;;;154.30;2252.80;;;;;;5076030;28;19995;-78
2021/12/04 10:36:54;;;;;;;;;;;153.90;2252.80;;;;;;5075650;28;19908;-79
2021/12/04 10:39:20;;;;;;;;;;;154.10;2252.80;;;;;;5076130;28;19942;-79
2021/12/04 10:41:46;;;;;;;;;;;154.30;2252.80;;;;;;5076260;28;19904;-78
2021/12/04 10:44:16;;;;;;;;;;;154.00;2252.80;;;;;;5075706;28;19916;-74
2021/12/04 10:46:56;;;;;;;;;;;154.10;2252.80;;;;;;5075151;28;19936;-79
2021/12/04 10:49:31;;;;;;;;;;;154.10;2252.80;;;;;;5074874;28;19995;-79
2021/12/04 10:52:03;;;;;;;;;;;154.20;2252.80;;;;;;5074739;28;19912;-81
2021/12/04 10:54:33;;;;;;;;;;;154.00;2252.80;;;;;;5076272;28;19904;-78
2021/12/04 11:02:45;;;;;;;;;;;154.10;2252.80;;;;;;5033847;28;20423;-79
2021/12/04 11:28:15;;;;;;;;;;;154.10;2252.80;;;;;;4994303;28;19913;-78
2021/12/04 11:44:12;;;;;;;;;;;153.90;2252.80;;;;;;5013315;28;19963;-74
2021/12/04 11:46:45;;;;;;;;;;;153.80;2252.80;;;;;;5013409;28;19940;-79
2021/12/04 11:49:13;;;;;;;;;;;153.90;2252.80;;;;;;5013030;28;19948;-75
2021/12/04 11:51:47;;;;;;;;;;;153.90;2252.80;;;;;;5013278;28;19916;-78
2021/12/04 11:54:13;;;;;;;;;;;154.10;2252.80;;;;;;5013484;28;19905;-76
2021/12/04 11:56:39;;;;;;;;;;;154.10;2252.80;;;;;;5012888;28;19906;-75
2021/12/04 11:59:05;;;;;;;;;;;154.30;2252.80;;;;;;5013070;28;19913;-81
2021/12/04 12:01:32;;;;;;;;;;;154.10;2252.80;;;;;;5031600;28;19928;-80
2021/12/04 12:04:08;;;;;;;;;;;154.10;2252.80;;;;;;5074631;28;19974;-75
2021/12/04 12:06:34;;;;;;;;;;;154.10;2252.80;;;;;;5073482;28;20276;-78
2021/12/04 12:09:03;;;;;;;;;;;154.20;2252.80;;;;;;5073243;28;19911;-79
2021/12/04 12:11:29;;;;;;;;;;;154.30;2252.80;;;;;;5074048;28;19980;-76
2021/12/04 12:13:59;;;;;;;;;;;154.10;2252.80;;;;;;5072493;28;19908;-75
2021/12/04 12:16:33;;;;;;;;;;;154.10;2252.80;;;;;;5073940;28;19912;-76
2021/12/04 12:19:09;;;;;;;;;;;154.10;2252.80;;;;;;5073758;28;19916;-77
2021/12/04 12:21:45;;;;;;;;;;;154.20;2252.80;;;;;;5053683;28;20395;-76
2021/12/04 12:26:56;;;;;;;;;;;153.80;2252.80;;;;;;5053928;28;20402;-75
2021/12/04 12:32:36;;;;;;;;;;;153.90;2252.80;;;;;;5054718;28;20325;-76
2021/12/04 12:37:48;;;;;;;;;;;154.10;2252.80;;;;;;5054114;28;19983;-78
2021/12/04 12:40:16;;;;;;;;;;;154.20;2252.80;;;;;;5060582;28;19908;-75
2021/12/04 12:42:42;;;;;;;;;;;154.10;2252.80;;;;;;5073391;28;19904;-75
2021/12/04 12:45:19;;;;;;;;;;;154.20;2252.80;;;;;;5071534;28;19905;-78
2021/12/04 12:47:49;;;;;;;;;;;154.10;2252.80;;;;;;5073285;28;19908;-77
2021/12/04 12:50:24;;;;;;;;;;;154.10;2252.80;;;;;;5073882;28;19928;-78
2021/12/04 12:52:58;;;;;;;;;;;154.20;2252.80;;;;;;5073951;28;19979;-79
2021/12/04 12:55:24;;;;;;;;;;;154.20;2252.80;;;;;;5073413;28;20376;-76
2021/12/04 12:57:50;;;;;;;;;;;154.10;2252.80;;;;;;5073283;28;19912;-79
2021/12/04 13:14:13;;;;;;;;;;;154.30;2252.80;;;;;;5069675;28;19923;-79
2021/12/04 13:16:42;;;;;;;;;;;154.20;2252.80;;;;;;5071760;28;19913;-77
2021/12/04 13:19:11;;;;;;;;;;;154.20;2252.80;;;;;;5072768;28;20279;-79
2021/12/04 13:21:38;;;;;;;;;;;154.10;2252.80;;;;;;5072585;28;19963;-78
2021/12/04 13:24:05;;;;;;;;;;;154.20;2252.80;;;;;;5073259;28;19905;-77
2021/12/04 13:26:33;;;;;;;;;;;154.30;2252.80;;;;;;5073121;28;20000;-77
2021/12/04 13:29:00;;;;;;;;;;;154.30;2252.80;;;;;;5072315;28;19908;-78
2021/12/04 13:31:26;;;;;;;;;;;154.20;2252.80;;;;;;5072915;28;19946;-79
2021/12/04 13:33:53;;;;;;;;;;;154.10;2252.80;;;;;;5073109;28;19970;-76
2021/12/04 13:36:28;;;;;;;;;;;154.10;2252.80;;;;;;5073391;28;20364;-78
2021/12/04 13:38:58;;;;;;;;;;;154.10;2252.80;;;;;;5073043;28;19998;-78
2021/12/04 13:41:23;;;;;;;;;;;154.00;2252.80;;;;;;5071390;28;19909;-79
2021/12/04 13:43:51;;;;;;;;;;;154.10;2252.80;;;;;;5071449;28;19912;-79
2021/12/04 13:46:16;;;;;;;;;;;154.00;2252.80;;;;;;5071651;28;19963;-80
2021/12/04 13:48:42;;;;;;;;;;;153.90;2252.80;;;;;;5072324;28;19927;-77
2021/12/04 13:51:09;;;;;;;;;;;154.00;2252.80;;;;;;5069731;28;19916;-76
2021/12/04 13:53:36;;;;;;;;;;;154.10;2252.80;;;;;;5072418;28;19908;-78
2021/12/04 13:56:06;;;;;;;;;;;154.00;2252.80;;;;;;5071377;28;20430;-78
2021/12/04 13:58:32;;;;;;;;;;;153.80;2252.80;;;;;;5072099;28;20339;-79
2021/12/04 14:00:59;;;;;;;;;;;153.80;2252.80;;;;;;5072241;28;19904;-80
2021/12/04 14:03:26;;;;;;;;;;;153.90;2252.80;;;;;;5071287;28;19905;-81
2021/12/04 14:05:52;;;;;;;;;;;154.00;2252.80;;;;;;5071185;28;19912;-75
2021/12/04 14:08:18;;;;;;;;;;;154.00;2252.80;;;;;;5072618;28;19915;-75
2021/12/04 14:10:45;;;;;;;;;;;153.80;2252.80;;;;;;5072111;28;20304;-80
2021/12/04 14:13:12;;;;;;;;;;;153.80;2252.80;;;;;;5072571;28;19910;-79
2021/12/04 14:15:43;;;;;;;;;;;153.80;2252.80;;;;;;5072898;28;19927;-80
2021/12/04 14:18:10;;;;;;;;;;;154.00;2252.80;;;;;;5072721;28;19924;-81
2021/12/04 14:20:36;;;;;;;;;;;153.90;2252.80;;;;;;5071958;28;19909;-76
2021/12/04 14:23:02;;;;;;;;;;;153.90;2252.80;;;;;;5072836;28;19964;-80
2021/12/04 14:25:28;;;;;;;;;;;153.80;2252.80;;;;;;5073145;28;20295;-80
2021/12/04 14:27:56;;;;;;;;;;;153.80;2252.80;;;;;;5076563;28;19904;-74
2021/12/04 14:30:33;;;;;;;;;;;153.80;2252.80;;;;;;5076733;28;19905;-80
2021/12/04 14:33:00;;;;;;;;;;;153.90;2252.80;;;;;;5076671;28;19911;-80
2021/12/04 14:35:28;;;;;;;;;;;154.00;2252.80;;;;;;5075213;28;19905;-79
2021/12/04 14:37:55;;;;;;;;;;;153.80;2252.80;;;;;;5076503;28;19982;-74
2021/12/04 14:40:30;;;;;;;;;;;153.80;2252.80;;;;;;5076564;28;20299;-78
2021/12/04 14:42:56;;;;;;;;;;;153.80;2252.80;;;;;;5075538;28;19904;-80
2021/12/04 14:45:23;;;;;;;;;;;153.80;2252.80;;;;;;5075436;28;20420;-80
2021/12/04 14:47:53;;;;;;;;;;;153.70;2252.80;;;;;;5076203;28;19904;-80
2021/12/04 14:50:19;;;;;;;;;;;153.60;2252.80;;;;;;5076366;28;19927;-80
2021/12/04 14:52:49;;;;;;;;;;;153.60;2252.80;;;;;;5076116;28;19969;-81
2021/12/04 14:55:20;;;;;;;;;;;128.90;2252.80;;;;;;5076416;28;19909;-80
2021/12/04 14:57:46;;;;;;;;;;;128.80;2252.80;;;;;;5076041;28;19917;-81
2021/12/04 15:00:13;;;;;;;;;;;128.80;2252.80;;;;;;5076226;28;20345;-80
2021/12/04 15:02:39;;;;;;;;;;;128.80;2252.80;;;;;;5075996;28;19905;-80
2021/12/04 15:05:06;;;;;;;;;;;128.60;2252.80;;;;;;5076295;28;19911;-81
2021/12/04 15:07:33;;;;;;;;;;;128.50;2252.80;;;;;;5075735;28;20407;-81
2021/12/04 15:10:02;;;;;;;;;;;128.50;2252.80;;;;;;5074878;28;19904;-78
2021/12/04 15:12:32;;;;;;;;;;;128.50;2252.80;;;;;;5074635;28;19905;-76
2021/12/04 15:15:04;;;;;;;;;;;128.50;2252.80;;;;;;5075716;28;19914;-77
2021/12/04 15:17:30;;;;;;;;;;;128.40;2252.80;;;;;;5075395;28;20348;-79
2021/12/04 15:20:09;;;;;;;;;;;128.40;2252.80;;;;;;5073981;28;19908;-77
2021/12/04 15:22:38;;;;;;;;;;;128.40;2252.80;;;;;;5074808;28;19912;-80
2021/12/04 15:25:15;;;;;;;;;;;128.50;2252.80;;;;;;5075118;28;19916;-79
2021/12/04 15:27:41;;;;;;;;;;;128.50;2252.80;;;;;;5074725;28;19908;-78
2021/12/04 15:30:10;;;;;;;;;;;128.50;2252.80;;;;;;5074832;28;19950;-78
2021/12/04 15:32:37;;;;;;;;;;;128.40;2252.80;;;;;;5073639;28;20368;-75
2021/12/04 15:35:33;;;;;;;;;;;128.40;2252.80;;;;;;5074944;28;19951;-78
2021/12/04 15:38:04;;;;;;;;;;;128.40;2252.80;;;;;;5072524;28;19970;-79
2021/12/04 15:40:40;;;;;;;;;;;128.30;2252.80;;;;;;5074752;28;19904;-79
2021/12/04 15:43:23;;;;;;;;;;;128.30;2252.80;;;;;;5071979;28;19926;-78
2021/12/04 15:48:52;;;;;;;;;;;128.40;2252.80;;;;;;5074527;28;20331;-75
2021/12/04 15:52:42;;;;;;;;;;;128.40;2252.80;;;;;;5073188;28;20273;-75
2021/12/04 15:54:17;;;;;;;;;;;128.50;2252.80;;;;;;5072476;28;19912;-78
2021/12/04 15:56:46;;;;;;;;;;;128.40;2252.80;;;;;;5073441;28;19946;-77
2021/12/04 15:59:29;;;;;;;;;;;128.50;2252.80;;;;;;5074455;28;19913;-79
2021/12/04 16:01:57;;;;;;;;;;;128.50;2252.80;;;;;;5073143;28;19921;-80
2021/12/04 16:04:27;;;;;;;;;;;128.50;2252.80;;;;;;5074684;28;19912;-78
2021/12/04 16:06:54;;;;;;;;;;;128.40;2252.80;;;;;;5073355;28;19912;-79
2021/12/04 16:09:24;;;;;;;;;;;128.40;2252.80;;;;;;5073281;28;19950;-78
2021/12/04 16:11:49;;;;;;;;;;;128.40;2252.80;;;;;;5072426;28;19908;-78
2021/12/04 16:14:15;;;;;;;;;;;128.50;2252.80;;;;;;5072092;28;19911;-77
2021/12/04 16:16:41;;;;;;;;;;;128.60;2252.80;;;;;;5072073;28;19904;-79
2021/12/04 16:19:08;;;;;;;;;;;128.40;2252.80;;;;;;5072431;28;20395;-78
2021/12/04 16:21:35;;;;;;;;;;;128.40;2252.80;;;;;;5072826;28;19912;-79
2021/12/04 16:24:02;;;;;;;;;;;128.30;2252.80;;;;;;5072853;28;19915;-77
2021/12/04 16:26:29;;;;;;;;;;;128.30;2252.80;;;;;;5072976;28;19916;-79
2021/12/04 16:37:31;;;;;;;;;;;128.40;2252.80;;;;;;5072101;28;20429;-79
2021/12/04 16:39:57;;;;;;;;;;;128.10;2252.80;;;;;;5067696;28;20366;-76
2021/12/04 16:42:23;;;;;;;;;;;103.30;2227.20;;;;;;5073479;28;19904;-78
2021/12/04 16:44:49;;;;;;;;;;;103.30;2227.20;;;;;;5073118;28;20323;-76
2021/12/04 16:47:15;;;;;;;;;;;128.20;2252.80;;;;;;5072676;28;19912;-80
2021/12/04 16:49:41;;;;;;;;;;;128.10;2252.80;;;;;;5073130;28;19916;-80
2021/12/04 16:57:26;;;;;;;;;;;102.80;2227.20;;;;;;5072965;28;20376;-78
2021/12/04 16:59:53;;;;;;;;;;;102.70;2227.20;;;;;;5072272;28;19911;-76
2021/12/04 17:02:20;;;;;;;;;;;102.50;2227.20;;;;;;5072742;28;19909;-75
2021/12/04 17:04:46;;;;;;;;;;;102.60;2227.20;;;;;;5072301;28;20410;-79
2021/12/04 17:07:12;;;;;;;;;;;102.70;2227.20;;;;;;5073039;28;19911;-78
2021/12/04 17:09:38;;;;;;;;;;;102.90;2227.20;;;;;;5073470;28;19908;-78
2021/12/04 17:12:04;;;;;;;;;;;102.90;2227.20;;;;;;5073468;28;19915;-79
2021/12/04 17:14:31;;;;;;;;;;;103.00;2227.20;;;;;;5072149;28;19904;-77
2021/12/04 17:16:58;;;;;;;;;;;103.00;2227.20;;;;;;5073993;28;19905;-82